Time;durP1;ratioP1;P1;durP2;ratioP2;P2;SDS_P1;SDS_P2;PMS_P1;PMS_P2;Temp;Humidity;BMP_temperature;BMP_pressure;BME280_temperature;BME280_humidity;BME280_pressure;Samples;Min_cycle;Max_cycle;Signal;HPM_P1;HPM_P2
2020/12/16 00:02:43;;;;;;;10.90;7.32;;;;;;;7.55;99.78;100868.44;6029824;29;20211;-78
2020/12/16 00:05:46;;;;;;;10.98;7.18;;;;;;;7.75;99.97;100897.63;6022902;29;20208;-81
2020/12/16 00:08:51;;;;;;;12.82;7.95;;;;;;;7.82;98.81;100879.50;6024950;29;20211;-79
2020/12/16 00:11:56;;;;;;;10.93;8.03;;;;;;;7.52;100.00;100882.41;6042633;29;20202;-78
2020/12/16 00:14:59;;;;;;;10.03;8.30;;;;;;;7.69;100.00;100901.97;6031268;29;20214;-82
2020/12/16 00:18:21;;;;;;;12.60;8.90;;;;;;;7.77;99.79;100898.28;6024273;29;20221;-82
2020/12/16 00:21:25;;;;;;;13.53;9.53;;;;;;;7.54;100.00;100887.66;6033630;29;20325;-82
2020/12/16 00:24:29;;;;;;;17.17;9.53;;;;;;;7.56;100.00;100897.28;6035631;29;20199;-80
2020/12/16 00:27:32;;;;;;;13.27;9.43;;;;;;;7.58;100.00;100895.19;6037733;29;20290;-81
2020/12/16 00:30:35;;;;;;;12.77;9.50;;;;;;;7.47;100.00;100887.56;6042396;29;20207;-79
2020/12/16 00:33:56;;;;;;;13.63;9.87;;;;;;;7.62;100.00;100892.09;6040930;29;20282;-80
2020/12/16 00:36:59;;;;;;;14.80;10.10;;;;;;;7.58;100.00;100895.19;6035758;29;20210;-79
2020/12/16 00:40:05;;;;;;;15.43;9.77;;;;;;;7.67;100.00;100887.75;6034607;29;20236;-80
2020/12/16 00:43:13;;;;;;;13.37;9.67;;;;;;;7.77;100.00;100890.13;6039411;29;20202;-80
2020/12/16 00:46:16;;;;;;;14.27;9.80;;;;;;;7.70;99.97;100870.22;6037110;29;20195;-79
2020/12/16 00:49:22;;;;;;;16.87;10.70;;;;;;;7.69;100.00;100890.28;6016325;29;20675;-82
2020/12/16 00:52:26;;;;;;;16.27;10.57;;;;;;;7.78;100.00;100883.66;6019128;29;20238;-82
2020/12/16 00:55:30;;;;;;;17.10;10.53;;;;;;;7.81;99.34;100878.66;6019035;29;20204;-81
2020/12/16 00:58:33;;;;;;;15.63;10.40;;;;;;;7.91;99.17;100883.78;6025605;29;20263;-82
2020/12/16 01:01:38;;;;;;;16.70;10.53;;;;;;;7.90;98.63;100882.06;6019224;29;20290;-80
2020/12/16 01:04:43;;;;;;;15.63;10.63;;;;;;;7.93;98.30;100859.97;6026243;29;20238;-81
2020/12/16 01:07:48;;;;;;;16.80;10.20;;;;;;;7.85;99.08;100876.41;6045965;29;20263;-80
2020/12/16 01:10:52;;;;;;;17.30;11.20;;;;;;;7.82;99.57;100868.66;6045558;29;20207;-82
2020/12/16 01:14:02;;;;;;;15.97;9.90;;;;;;;7.84;99.43;100880.16;6027499;29;20206;-82
2020/12/16 01:17:10;;;;;;;16.83;10.70;;;;;;;7.80;99.78;100881.59;6036669;29;20198;-80
2020/12/16 01:20:20;;;;;;;14.97;10.43;;;;;;;7.78;98.95;100856.50;6035131;29;20210;-83
2020/12/16 01:23:28;;;;;;;17.33;10.70;;;;;;;7.67;99.28;100854.34;6016988;29;20207;-80
2020/12/16 01:26:40;;;;;;;19.27;10.37;;;;;;;7.84;99.66;100877.44;6019925;29;20226;-81
2020/12/16 01:29:44;;;;;;;15.48;10.20;;;;;;;7.98;98.86;100879.22;6013691;29;20230;-79
2020/12/16 01:32:51;;;;;;;17.13;10.53;;;;;;;7.90;98.39;100860.34;6026475;29;20623;-79
2020/12/16 01:36:06;;;;;;;15.90;10.13;;;;;;;8.03;98.20;100882.16;6013861;29;20200;-80
2020/12/16 01:39:15;;;;;;;17.73;10.27;;;;;;;7.85;97.21;100835.66;6014612;29;20366;-79
2020/12/16 01:42:25;;;;;;;15.63;10.20;;;;;;;8.03;97.27;100876.72;6016786;29;20349;-82
2020/12/16 01:45:34;;;;;;;20.10;10.57;;;;;;;8.16;97.14;100876.81;6027908;29;20256;-80
2020/12/16 01:48:42;;;;;;;11.55;9.35;;;;;;;7.85;98.67;100879.97;6033578;29;20671;-84
2020/12/16 01:51:53;;;;;;;13.18;9.77;;;;;;;7.94;98.17;100880.63;6033741;29;20246;-79
2020/12/16 01:54:59;;;;;;;10.47;8.43;;;;;;;8.01;97.57;100878.81;6027851;29;20594;-80
2020/12/16 01:58:16;;;;;;;10.57;8.30;;;;;;;8.01;97.83;100873.38;6008359;29;20221;-80
2020/12/16 02:01:24;;;;;;;9.80;8.02;;;;;;;8.01;97.33;100859.81;6018934;29;20646;-78
2020/12/16 02:04:35;;;;;;;23.15;9.75;;;;;;;8.07;97.12;100867.13;6007813;29;20222;-79
2020/12/16 02:07:44;;;;;;;8.80;6.88;;;;;;;8.02;97.20;100858.75;6019471;29;20559;-82
2020/12/16 02:10:49;;;;;;;7.63;6.80;;;;;;;8.05;96.93;100847.47;6028732;29;20652;-81
2020/12/16 02:13:54;;;;;;;9.73;7.30;;;;;;;7.80;98.13;100859.88;6014783;29;20254;-79
2020/12/16 02:16:59;;;;;;;7.63;6.78;;;;;;;7.51;99.03;100829.16;6021455;29;20206;-80
2020/12/16 02:20:05;;;;;;;9.32;6.72;;;;;;;7.80;98.98;100859.88;6037388;29;20307;-82
2020/12/16 02:23:26;;;;;;;9.05;6.35;;;;;;;7.88;97.73;100846.13;6040014;29;20207;-80
2020/12/16 02:26:36;;;;;;;7.33;6.57;;;;;;;7.31;96.96;100730.47;6031550;29;20207;-81
2020/12/16 02:29:41;;;;;;;8.40;6.55;;;;;;;8.10;96.34;100855.88;6034518;29;20263;-79
2020/12/16 02:33:10;;;;;;;6.53;5.93;;;;;;;7.95;97.28;100836.97;6036345;29;20219;-78
2020/12/16 02:36:25;;;;;;;6.13;5.55;;;;;;;7.97;97.10;100844.91;6028631;29;20209;-79
2020/12/16 02:39:41;;;;;;;7.45;5.65;;;;;;;7.95;97.62;100847.84;6007402;29;20283;-79
2020/12/16 02:42:57;;;;;;;6.00;5.50;;;;;;;7.99;97.04;100853.69;6018767;29;20202;-79
2020/12/16 02:46:01;;;;;;;5.82;5.22;;;;;;;8.00;96.92;100849.97;6031328;29;20231;-79
2020/12/16 02:49:08;;;;;;;4.88;4.50;;;;;;;8.09;96.51;100849.59;6028080;29;20806;-82
2020/12/16 02:52:13;;;;;;;4.85;4.45;;;;;;;8.07;96.36;100848.09;6015039;29;20253;-81
2020/12/16 02:55:17;;;;;;;4.47;4.27;;;;;;;8.08;96.46;100852.53;6015701;29;20334;-80
2020/12/16 02:58:44;;;;;;;5.53;3.90;;;;;;;8.02;96.40;100842.44;6032755;29;20191;-80
2020/12/16 03:01:49;;;;;;;4.40;4.05;;;;;;;7.83;97.56;100843.16;6014052;29;20241;-81
2020/12/16 03:05:20;;;;;;;4.50;4.13;;;;;;;7.90;97.49;100833.19;6030120;29;20275;-80
2020/12/16 03:08:30;;;;;;;3.75;3.55;;;;;;;8.10;96.98;100855.88;6021185;29;20199;-82
2020/12/16 03:11:40;;;;;;;3.97;3.67;;;;;;;8.02;96.91;100858.75;6026473;29;20211;-80
2020/12/16 03:14:46;;;;;;;4.18;3.90;;;;;;;7.67;98.46;100822.59;6013915;29;20215;-80
2020/12/16 03:17:50;;;;;;;4.22;3.95;;;;;;;8.08;96.90;100852.53;6017689;29;20237;-80
2020/12/16 03:20:53;;;;;;;3.73;3.40;;;;;;;7.99;97.13;100861.84;6018786;29;20442;-80
2020/12/16 03:23:57;;;;;;;3.73;3.53;;;;;;;8.08;96.82;100864.22;6020822;29;20206;-80
2020/12/16 03:27:23;;;;;;;3.97;3.67;;;;;;;8.08;96.69;100871.53;6016027;29;20235;-84
2020/12/16 03:30:52;;;;;;;3.70;3.47;;;;;;;8.07;96.71;100861.69;6028442;29;20235;-80
2020/12/16 03:34:09;;;;;;;3.10;3.00;;;;;;;7.93;98.21;100862.66;6013101;29;20278;-82
2020/12/16 03:37:38;;;;;;;3.47;3.17;;;;;;;7.91;98.37;100845.75;6028495;29;20236;-80
2020/12/16 03:40:41;;;;;;;3.40;3.30;;;;;;;7.97;97.71;100855.78;6018483;29;20317;-78
2020/12/16 03:43:47;;;;;;;3.30;3.10;;;;;;;7.95;98.16;100844.28;6016833;29;20206;-81
2020/12/16 03:46:52;;;;;;;2.78;2.67;;;;;;;7.79;98.96;100858.16;6016775;29;20239;-80
2020/12/16 03:50:00;;;;;;;2.60;2.50;;;;;;;7.95;98.53;100876.88;6018362;29;20318;-77
2020/12/16 03:53:04;;;;;;;2.80;2.70;;;;;;;7.79;99.59;100869.03;6021090;29;20294;-81
2020/12/16 03:56:30;;;;;;;2.55;2.55;;;;;;;7.90;99.23;100871.22;6030530;29;20279;-79
2020/12/16 03:59:54;;;;;;;2.85;2.75;;;;;;;8.03;98.46;100876.72;6030952;29;20275;-80
2020/12/16 04:03:34;;;;;;;2.60;2.50;;;;;;;7.95;98.22;100876.88;6032365;29;20207;-79
2020/12/16 04:06:55;;;;;;;3.55;2.70;;;;;;;7.92;98.98;100871.84;6016316;29;20215;-80
2020/12/16 04:10:01;;;;;;;2.53;2.53;;;;;;;7.81;100.00;100875.94;6046480;29;20210;-80
2020/12/16 04:13:09;;;;;;;2.40;2.30;;;;;;;7.78;99.38;100856.50;6030444;29;20263;-81
2020/12/16 04:16:14;;;;;;;2.45;2.35;;;;;;;7.56;99.32;100826.69;6026483;29;20756;-79
2020/12/16 04:19:22;;;;;;;2.30;2.20;;;;;;;7.90;99.59;100882.06;6021816;29;20620;-79
2020/12/16 04:22:29;;;;;;;2.43;2.33;;;;;;;7.84;99.72;100882.88;6019560;29;20226;-79
2020/12/16 04:25:37;;;;;;;2.20;2.20;;;;;;;7.92;99.61;100888.16;6030168;29;20629;-79
2020/12/16 04:28:49;;;;;;;4.93;2.20;;;;;;;7.80;99.89;100871.56;6021869;29;20290;-80
2020/12/16 04:31:52;;;;;;;2.25;2.15;;;;;;;7.93;100.00;100892.56;6032830;29;20211;-83
2020/12/16 04:35:03;;;;;;;1.92;1.92;;;;;;;7.95;99.86;100887.75;6036135;29;20204;-84
2020/12/16 04:38:09;;;;;;;1.97;1.90;;;;;;;7.98;99.84;100887.38;6021101;29;20222;-81
2020/12/16 04:41:20;;;;;;;2.20;2.00;;;;;;;7.98;99.59;100898.22;6019807;29;20534;-79
2020/12/16 04:44:36;;;;;;;3.37;2.00;;;;;;;7.97;99.63;100901.97;6018490;29;20239;-79
2020/12/16 04:47:49;;;;;;;2.20;2.10;;;;;;;8.07;99.11;100899.75;6019278;29;20218;-79
2020/12/16 04:50:56;;;;;;;1.67;1.67;;;;;;;8.07;98.72;100888.88;6010943;29;20233;-80
2020/12/16 04:54:00;;;;;;;1.95;1.95;;;;;;;8.05;99.13;100899.09;6033474;29;20669;-79
2020/12/16 04:57:09;;;;;;;2.00;1.90;;;;;;;8.00;99.61;100904.28;6014365;29;20654;-80
2020/12/16 05:00:19;;;;;;;6.18;1.80;;;;;;;8.04;99.77;100900.13;6031959;29;20219;-79
2020/12/16 05:03:47;;;;;;;2.20;2.10;;;;;;;7.99;99.84;100902.59;6019673;29;20201;-80
2020/12/16 05:07:01;;;;;;;2.13;2.13;;;;;;;7.83;99.63;100870.34;6018444;29;20205;-80
2020/12/16 05:10:04;;;;;;;3.00;2.35;;;;;;;7.88;100.00;100889.59;6034073;29;20670;-80
2020/12/16 05:13:10;;;;;;;2.50;2.40;;;;;;;8.09;99.24;100909.38;6025646;29;20646;-79
2020/12/16 05:16:17;;;;;;;2.45;2.45;;;;;;;8.09;98.68;100897.66;6035084;29;20198;-80
2020/12/16 05:19:31;;;;;;;3.03;2.70;;;;;;;8.16;98.85;100918.44;6034289;29;20271;-79
2020/12/16 05:22:35;;;;;;;2.90;2.80;;;;;;;8.27;98.38;100927.91;6034660;29;20226;-79
2020/12/16 05:25:39;;;;;;;2.63;2.53;;;;;;;8.19;98.95;100925.34;6034926;29;20191;-79
2020/12/16 05:29:01;;;;;;;3.30;3.20;;;;;;;8.13;99.53;100926.13;6017044;29;20207;-80
2020/12/16 05:32:21;;;;;;;3.50;3.40;;;;;;;8.05;99.72;100901.81;6030141;29;20267;-80
2020/12/16 05:35:26;;;;;;;3.70;3.60;;;;;;;7.99;99.61;100902.59;6032960;29;20199;-79
2020/12/16 05:38:31;;;;;;;3.97;3.67;;;;;;;8.08;99.33;100917.72;6040014;29;20327;-80
2020/12/16 05:41:34;;;;;;;4.05;3.95;;;;;;;7.91;100.00;100921.81;6052212;29;20253;-80
2020/12/16 05:44:38;;;;;;;4.10;3.90;;;;;;;7.90;100.00;100920.97;6034859;29;20676;-81
2020/12/16 05:47:55;;;;;;;4.35;4.05;;;;;;;8.04;99.68;100911.00;6034511;29;20228;-79
2020/12/16 05:50:59;;;;;;;4.10;3.90;;;;;;;8.13;100.00;100935.13;6034576;29;20374;-79
2020/12/16 05:54:13;;;;;;;4.78;4.38;;;;;;;8.07;99.18;100927.75;6035851;29;20210;-80
2020/12/16 05:57:18;;;;;;;4.73;4.53;;;;;;;8.10;99.80;100937.38;6037444;29;20239;-79
2020/12/16 06:00:22;;;;;;;4.63;4.43;;;;;;;8.10;99.05;100931.97;6043320;29;20738;-80
2020/12/16 06:03:36;;;;;;;4.87;4.60;;;;;;;8.23;98.68;100944.78;6035409;29;20195;-80
2020/12/16 06:06:42;;;;;;;5.17;4.80;;;;;;;8.13;99.45;100942.44;6029884;29;20210;-79
2020/12/16 06:09:46;;;;;;;5.00;4.68;;;;;;;8.21;99.14;100950.44;6033593;29;20271;-81
2020/12/16 06:12:52;;;;;;;5.13;4.72;;;;;;;8.23;99.07;100952.94;6034343;29;20706;-80
2020/12/16 06:15:58;;;;;;;4.35;4.15;;;;;;;8.13;98.87;100942.44;6033473;29;20207;-79
2020/12/16 06:19:03;;;;;;;4.60;4.40;;;;;;;8.12;98.80;100957.03;6034199;29;20214;-78
2020/12/16 06:22:08;;;;;;;4.97;4.77;;;;;;;8.13;99.20;100958.75;6033708;29;20244;-79
2020/12/16 06:25:15;;;;;;;4.70;4.35;;;;;;;8.07;98.91;100954.09;6030716;29;20655;-81
2020/12/16 06:28:19;;;;;;;4.63;4.40;;;;;;;8.33;97.42;100965.19;6033810;29;20250;-78
2020/12/16 06:31:26;;;;;;;4.50;4.20;;;;;;;8.16;98.47;100970.06;6035445;29;20210;-78
2020/12/16 06:34:30;;;;;;;4.75;4.40;;;;;;;8.14;98.27;100971.28;6026765;29;20211;-77
2020/12/16 06:37:33;;;;;;;4.20;4.00;;;;;;;8.18;98.23;100970.69;6029273;29;20711;-78
2020/12/16 06:40:45;;;;;;;4.03;3.92;;;;;;;8.03;97.99;100969.13;6030475;29;20211;-79
2020/12/16 06:43:52;;;;;;;5.83;4.07;;;;;;;8.07;98.60;100975.81;6038187;29;20195;-80
2020/12/16 06:46:56;;;;;;;4.35;4.15;;;;;;;8.16;97.56;100971.94;6047938;29;20231;-80
2020/12/16 06:50:16;;;;;;;4.30;4.10;;;;;;;8.17;97.27;100981.75;6040495;29;20812;-78
2020/12/16 06:53:22;;;;;;;4.10;3.92;;;;;;;7.99;97.96;100967.81;6037713;29;20230;-78
2020/12/16 06:56:28;;;;;;;4.23;4.03;;;;;;;8.00;98.19;100985.81;6036510;29;20285;-76
2020/12/16 06:59:59;;;;;;;4.47;4.30;;;;;;;8.02;98.08;100990.00;6032051;29;20662;-81
2020/12/16 07:03:16;;;;;;;5.47;3.97;;;;;;;7.93;97.17;100983.06;6035108;29;20691;-80
2020/12/16 07:06:39;;;;;;;3.95;3.75;;;;;;;8.03;97.00;101012.59;6042659;29;20199;-81
2020/12/16 07:09:42;;;;;;;4.17;3.90;;;;;;;8.01;96.93;101011.97;6041251;29;20203;-79
2020/12/16 07:12:46;;;;;;;3.80;3.70;;;;;;;8.06;96.86;101023.06;6037246;29;20805;-78
2020/12/16 07:15:56;;;;;;;4.20;3.60;;;;;;;7.98;96.91;101009.63;6031225;29;20195;-78
2020/12/16 07:18:59;;;;;;;3.80;3.60;;;;;;;8.09;96.33;101022.66;6024727;29;20203;-79
2020/12/16 07:22:16;;;;;;;3.70;3.50;;;;;;;8.06;95.66;101006.78;6033772;29;20607;-82
2020/12/16 07:25:19;;;;;;;3.60;3.30;;;;;;;8.03;95.16;101026.19;6033202;29;20225;-79
2020/12/16 07:28:24;;;;;;;3.60;3.40;;;;;;;7.94;95.55;101019.19;6030946;29;20563;-79
2020/12/16 07:31:27;;;;;;;3.70;3.60;;;;;;;8.12;95.20;101039.41;6036680;29;20298;-82
2020/12/16 07:34:33;;;;;;;3.80;3.70;;;;;;;7.98;95.55;101050.38;6042773;29;20502;-80
2020/12/16 07:37:36;;;;;;;3.00;2.90;;;;;;;7.90;94.02;101059.50;6034621;29;20217;-79
2020/12/16 07:40:40;;;;;;;3.20;3.10;;;;;;;7.85;94.12;101026.66;6039107;29;20198;-79
2020/12/16 07:43:45;;;;;;;2.77;2.60;;;;;;;8.07;92.38;101062.78;6039216;29;20309;-79
2020/12/16 07:47:03;;;;;;;3.13;2.95;;;;;;;7.44;93.29;100984.88;6039298;29;20199;-80
2020/12/16 07:50:09;;;;;;;2.70;2.60;;;;;;;7.93;93.29;101066.44;6041235;29;20333;-79
2020/12/16 07:53:15;;;;;;;2.40;2.40;;;;;;;7.75;92.72;101074.19;6044709;29;20241;-79
2020/12/16 07:56:20;;;;;;;4.00;2.80;;;;;;;7.78;93.15;101065.66;6034495;29;20203;-80
2020/12/16 07:59:29;;;;;;;3.28;2.90;;;;;;;7.89;92.50;101075.97;6030868;29;20730;-79
2020/12/16 08:02:33;;;;;;;2.80;2.60;;;;;;;7.84;92.70;101078.44;6038728;29;20303;-80
2020/12/16 08:05:36;;;;;;;2.58;2.47;;;;;;;7.91;92.34;101080.19;6035370;29;20215;-79
2020/12/16 08:08:45;;;;;;;2.53;2.43;;;;;;;7.75;92.57;101074.19;6038110;29;20211;-80
2020/12/16 08:11:48;;;;;;;2.70;2.30;;;;;;;7.87;92.73;101088.91;6031825;29;20638;-80
2020/12/16 08:15:05;;;;;;;2.70;2.60;;;;;;;7.91;92.81;101090.25;6026510;29;20215;-81
2020/12/16 08:18:20;;;;;;;2.30;2.20;;;;;;;7.57;92.58;101105.31;6031113;29;20247;-78
2020/12/16 08:21:25;;;;;;;2.80;2.70;;;;;;;7.64;93.25;101093.69;6036579;29;20214;-78
2020/12/16 08:24:28;;;;;;;3.80;2.60;;;;;;;7.79;92.53;101116.19;6030457;29;20305;-79
2020/12/16 08:27:31;;;;;;;2.40;2.33;;;;;;;7.81;92.51;101105.97;6043399;29;20544;-82
2020/12/16 08:30:38;;;;;;;2.40;2.30;;;;;;;7.77;93.02;101115.56;6034411;29;20201;-79
2020/12/16 08:33:47;;;;;;;2.20;2.20;;;;;;;7.90;91.58;101130.13;6040088;29;20271;-80
2020/12/16 08:36:51;;;;;;;2.33;2.33;;;;;;;7.75;91.21;101123.06;6034163;29;20290;-79
2020/12/16 08:39:56;;;;;;;3.47;2.20;;;;;;;7.71;91.40;101143.47;6032673;29;20207;-79
2020/12/16 08:43:18;;;;;;;3.40;2.30;;;;;;;7.68;92.47;101141.16;6035835;29;20230;-80
2020/12/16 08:46:25;;;;;;;2.17;2.07;;;;;;;7.71;91.84;101127.19;6031222;29;20203;-79
2020/12/16 08:49:28;;;;;;;2.20;2.10;;;;;;;7.91;91.08;101139.13;6028160;29;20329;-79
2020/12/16 08:52:44;;;;;;;2.27;2.10;;;;;;;7.78;90.73;101138.97;6023434;29;20298;-79
2020/12/16 08:55:47;;;;;;;1.93;1.77;;;;;;;7.88;89.91;101153.09;6023232;29;20206;-78
2020/12/16 08:59:00;;;;;;;2.03;2.03;;;;;;;7.83;89.27;101156.38;6049284;29;20186;-80
2020/12/16 09:02:08;;;;;;;1.70;1.70;;;;;;;7.63;89.88;101151.75;6030662;29;20215;-81
2020/12/16 09:05:12;;;;;;;3.60;1.63;;;;;;;7.60;90.46;101163.81;6038543;29;20210;-82
2020/12/16 09:08:19;;;;;;;2.30;1.77;;;;;;;7.67;88.97;101174.78;6048312;29;20254;-82
2020/12/16 09:11:23;;;;;;;1.77;1.67;;;;;;;7.64;88.08;101180.59;6032093;29;20210;-81
2020/12/16 09:14:26;;;;;;;1.97;1.87;;;;;;;7.71;88.59;101189.66;6034426;29;20312;-80
2020/12/16 09:17:34;;;;;;;1.43;1.43;;;;;;;7.62;87.77;101150.06;6035968;29;20214;-80
2020/12/16 09:20:38;;;;;;;1.57;1.40;;;;;;;7.64;88.72;101183.31;6021412;29;20211;-80
2020/12/16 09:23:41;;;;;;;1.50;1.50;;;;;;;7.67;89.26;101191.06;6039774;29;20700;-81
2020/12/16 09:26:47;;;;;;;2.30;1.40;;;;;;;7.66;88.03;101194.81;6031543;29;20619;-81
2020/12/16 09:29:50;;;;;;;2.30;1.30;;;;;;;7.57;88.30;101185.94;6035291;29;20490;-80
2020/12/16 09:32:55;;;;;;;1.37;1.37;;;;;;;7.36;88.66;101184.00;6035624;29;20243;-83
2020/12/16 09:35:58;;;;;;;1.50;1.40;;;;;;;7.40;87.88;101198.84;6037584;29;20198;-78
2020/12/16 09:39:05;;;;;;;1.57;1.47;;;;;;;7.34;88.33;101196.06;6026978;29;20232;-80
2020/12/16 09:42:10;;;;;;;1.40;1.30;;;;;;;7.16;86.37;101155.72;6040522;29;20215;-80
2020/12/16 09:45:15;;;;;;;1.67;1.23;;;;;;;7.39;87.09;101213.47;6034186;29;20269;-81
2020/12/16 09:48:28;;;;;;;1.67;1.57;;;;;;;7.17;88.24;101227.94;6035656;29;20203;-81
2020/12/16 09:51:34;;;;;;;1.80;1.80;;;;;;;7.35;87.13;101225.72;6033855;29;20325;-79
2020/12/16 09:54:38;;;;;;;1.73;1.73;;;;;;;7.27;86.96;101228.53;6034183;29;20211;-82
2020/12/16 09:57:42;;;;;;;1.27;1.27;;;;;;;7.28;86.51;101232.94;6030362;29;20293;-78
2020/12/16 10:00:45;;;;;;;1.60;1.60;;;;;;;6.95;87.96;101218.00;6023846;29;20213;-80
2020/12/16 10:03:54;;;;;;;1.60;1.50;;;;;;;7.16;87.19;101214.59;6043460;29;20243;-84
2020/12/16 10:06:58;;;;;;;1.60;1.40;;;;;;;6.92;85.85;101234.66;6041598;29;20210;-79
2020/12/16 10:10:01;;;;;;;3.27;1.40;;;;;;;7.04;85.48;101233.16;6032143;29;20246;-76
2020/12/16 10:13:09;;;;;;;1.60;1.60;;;;;;;7.14;85.45;101233.75;6040774;29;20276;-80
2020/12/16 10:16:14;;;;;;;1.70;1.60;;;;;;;7.04;84.56;101244.03;6032524;29;20194;-80
2020/12/16 10:19:20;;;;;;;1.60;1.60;;;;;;;7.17;84.77;101252.38;6032571;29;20191;-79
2020/12/16 10:22:23;;;;;;;2.40;1.40;;;;;;;6.96;85.00;101219.69;6031450;29;20652;-79
2020/12/16 10:25:27;;;;;;;1.60;1.50;;;;;;;7.07;85.13;101259.94;6038231;29;20266;-82
2020/12/16 10:28:30;;;;;;;1.50;1.40;;;;;;;7.19;85.12;101258.47;6040682;29;20194;-81
2020/12/16 10:31:34;;;;;;;1.53;1.53;;;;;;;7.09;85.07;101257.88;6046994;29;20222;-82
2020/12/16 10:34:38;;;;;;;1.77;1.70;;;;;;;7.05;85.53;101261.16;6031716;29;20211;-80
2020/12/16 10:37:41;;;;;;;1.73;1.73;;;;;;;7.14;85.74;101255.44;6037445;29;20208;-81
2020/12/16 10:40:47;;;;;;;1.73;1.73;;;;;;;6.68;85.39;101248.41;6032202;29;20305;-79
2020/12/16 10:43:50;;;;;;;2.00;1.93;;;;;;;6.87;87.07;101259.63;6050652;29;20226;-81
2020/12/16 10:46:55;;;;;;;2.00;1.90;;;;;;;7.02;85.00;101256.94;6025245;29;20210;-82
2020/12/16 10:50:00;;;;;;;4.20;1.90;;;;;;;7.14;84.91;101250.03;6044497;29;20218;-80
2020/12/16 10:53:05;;;;;;;1.60;1.60;;;;;;;7.06;85.04;101263.66;6036661;29;20732;-80
2020/12/16 10:56:26;;;;;;;6.37;1.97;;;;;;;7.04;86.50;101268.44;6013868;29;20538;-79
2020/12/16 10:59:30;;;;;;;2.33;2.10;;;;;;;6.87;86.30;101258.78;6025994;29;20321;-83
2020/12/16 11:02:49;;;;;;;2.43;2.30;;;;;;;6.99;87.41;101270.84;6027361;29;20707;-80
2020/12/16 11:05:53;;;;;;;2.20;1.87;;;;;;;6.98;86.35;101233.94;6032889;29;20218;-80
2020/12/16 11:08:57;;;;;;;1.93;1.93;;;;;;;7.16;86.33;101285.13;6044778;29;20217;-79
2020/12/16 11:12:00;;;;;;;2.37;2.20;;;;;;;7.22;86.32;101268.94;6049476;29;20221;-81
2020/12/16 11:15:05;;;;;;;2.20;2.10;;;;;;;7.09;85.79;101268.72;6046959;29;20275;-79
2020/12/16 11:18:18;;;;;;;2.07;1.97;;;;;;;7.03;86.17;101274.91;6029243;29;20192;-79
2020/12/16 11:21:22;;;;;;;4.70;1.73;;;;;;;7.04;85.13;101282.00;6048539;29;20206;-81
2020/12/16 11:24:27;;;;;;;4.00;2.07;;;;;;;7.07;85.20;101270.78;6044744;29;20331;-83
2020/12/16 11:27:30;;;;;;;2.80;1.93;;;;;;;7.07;85.15;101281.66;6045257;29;20217;-83
2020/12/16 11:30:35;;;;;;;6.53;2.00;;;;;;;7.16;85.11;101280.56;6039266;29;20677;-79
2020/12/16 11:33:38;;;;;;;1.93;1.83;;;;;;;7.10;85.35;101266.88;6034640;29;20675;-79
2020/12/16 11:36:43;;;;;;;2.67;2.20;;;;;;;7.19;86.22;101296.44;6037713;29;20261;-80
2020/12/16 11:39:47;;;;;;;3.43;2.00;;;;;;;7.16;86.25;101296.84;6038144;29;20570;-82
2020/12/16 11:42:50;;;;;;;1.80;1.80;;;;;;;7.28;85.08;101300.78;6033001;29;20222;-78
2020/12/16 11:45:54;;;;;;;4.93;2.30;;;;;;;7.17;85.36;101320.22;6034387;29;20211;-79
2020/12/16 11:48:58;;;;;;;2.37;2.30;;;;;;;7.16;85.21;101318.56;6040038;29;20195;-80
2020/12/16 11:52:01;;;;;;;7.13;1.80;;;;;;;7.07;85.06;101297.94;6049206;29;20322;-83
2020/12/16 11:55:06;;;;;;;2.47;2.10;;;;;;;7.11;86.38;101337.25;6041979;29;20215;-79
2020/12/16 11:58:14;;;;;;;1.90;1.90;;;;;;;7.13;84.96;101332.47;6045358;29;20209;-80
2020/12/16 12:01:19;;;;;;;2.20;2.03;;;;;;;7.08;85.36;101331.34;6049619;29;20274;-79
2020/12/16 12:04:23;;;;;;;2.47;1.50;;;;;;;7.12;84.64;101327.22;6046275;29;20233;-80
2020/12/16 12:07:26;;;;;;;1.70;1.67;;;;;;;7.14;84.16;101331.44;6034712;29;20213;-79
2020/12/16 12:10:29;;;;;;;1.77;1.67;;;;;;;7.05;83.75;101327.13;6028711;29;20225;-79
2020/12/16 12:13:33;;;;;;;3.07;1.63;;;;;;;7.20;83.86;101336.13;6032634;29;20831;-79
2020/12/16 12:16:38;;;;;;;1.67;1.57;;;;;;;7.10;84.08;101340.97;6038825;29;20206;-82
2020/12/16 12:19:42;;;;;;;1.47;1.47;;;;;;;7.11;83.71;101310.13;6026664;29;20218;-79
2020/12/16 12:22:45;;;;;;;4.87;1.37;;;;;;;6.74;83.79;101301.94;6036479;29;21069;-79
2020/12/16 12:25:49;;;;;;;1.47;1.43;;;;;;;7.10;83.75;101335.56;6037327;29;20314;-79
2020/12/16 12:28:52;;;;;;;5.03;1.53;;;;;;;7.23;83.95;101335.78;6036426;29;20205;-78
2020/12/16 12:31:56;;;;;;;1.80;1.70;;;;;;;7.10;84.31;101340.97;6041010;29;20187;-82
2020/12/16 12:34:59;;;;;;;1.80;1.60;;;;;;;7.13;84.37;101340.63;6045281;29;20195;-78
2020/12/16 12:38:03;;;;;;;3.33;2.23;;;;;;;7.04;84.18;101336.28;6035738;29;20210;-80
2020/12/16 12:41:07;;;;;;;3.70;1.83;;;;;;;7.17;84.54;101366.34;6042065;29;20197;-83
2020/12/16 12:44:13;;;;;;;2.20;1.67;;;;;;;6.94;85.48;101370.94;6048598;29;20244;-81
2020/12/16 12:47:17;;;;;;;2.17;1.30;;;;;;;7.03;84.57;101380.72;6040771;29;20195;-80
2020/12/16 12:50:20;;;;;;;2.23;1.77;;;;;;;7.03;85.01;101378.00;6051092;29;20697;-80
2020/12/16 12:53:24;;;;;;;3.80;1.50;;;;;;;6.76;84.84;101324.28;6046396;29;20245;-79
2020/12/16 12:56:27;;;;;;;5.97;1.40;;;;;;;7.04;84.60;101368.81;6039931;29;20210;-83
2020/12/16 12:59:31;;;;;;;2.30;1.43;;;;;;;7.12;84.42;101385.06;6036188;29;20568;-78
2020/12/16 13:02:35;;;;;;;1.60;1.57;;;;;;;7.06;84.80;101393.91;6037464;29;20211;-80
2020/12/16 13:05:38;;;;;;;3.50;1.60;;;;;;;6.99;84.58;101375.81;6033638;29;20273;-79
2020/12/16 13:08:41;;;;;;;1.60;1.50;;;;;;;7.19;84.30;101399.56;6036695;29;20274;-79
2020/12/16 13:11:48;;;;;;;2.77;1.70;;;;;;;7.22;83.78;101404.66;6046797;29;20213;-79
2020/12/16 13:14:52;;;;;;;2.13;1.50;;;;;;;7.02;84.55;101403.44;6037967;29;20206;-78
2020/12/16 13:17:56;;;;;;;6.07;1.73;;;;;;;7.17;84.39;101407.06;6034747;29;20217;-78
2020/12/16 13:21:04;;;;;;;1.83;1.80;;;;;;;7.32;84.09;101415.25;6044429;29;20190;-82
2020/12/16 13:24:12;;;;;;;2.60;1.73;;;;;;;7.09;84.78;101403.59;6045545;29;20317;-83
2020/12/16 13:27:20;;;;;;;1.43;1.20;;;;;;;7.17;85.04;101426.06;6054842;29;20450;-84
2020/12/16 13:30:24;;;;;;;6.57;1.87;;;;;;;7.01;85.48;101412.59;6033774;29;20199;-79
2020/12/16 13:33:33;;;;;;;2.57;1.60;;;;;;;7.11;84.12;101418.66;6031225;29;20682;-80
2020/12/16 13:36:37;;;;;;;1.10;1.10;;;;;;;7.08;83.57;101435.28;6033082;29;20206;-82
2020/12/16 13:39:41;;;;;;;1.17;1.17;;;;;;;6.98;83.16;101434.69;6031026;29;20293;-81
2020/12/16 13:42:44;;;;;;;2.20;1.10;;;;;;;6.87;83.27;101435.09;6030702;29;20223;-80
2020/12/16 13:45:48;;;;;;;1.40;1.30;;;;;;;6.83;83.11;101425.63;6033066;29;20206;-79
2020/12/16 13:48:53;;;;;;;1.13;1.13;;;;;;;6.84;83.87;101459.84;6027145;29;20226;-80
2020/12/16 13:51:57;;;;;;;3.70;1.13;;;;;;;6.79;82.82;101421.56;6031164;29;20238;-80
2020/12/16 13:55:01;;;;;;;2.87;1.33;;;;;;;7.04;82.52;101458.38;6031428;29;20214;-79
2020/12/16 13:58:08;;;;;;;1.80;1.43;;;;;;;7.02;82.56;101457.69;6029699;29;20214;-78
2020/12/16 14:01:14;;;;;;;2.00;1.17;;;;;;;6.87;82.77;101470.34;6030974;29;20222;-80
2020/12/16 14:04:19;;;;;;;4.40;1.53;;;;;;;7.02;83.58;101479.41;6029322;29;20702;-81
2020/12/16 14:07:22;;;;;;;4.10;1.30;;;;;;;7.05;83.52;101473.63;6027693;29;20284;-79
2020/12/16 14:10:26;;;;;;;1.70;1.50;;;;;;;7.00;82.74;101491.47;6029172;29;20547;-82
2020/12/16 14:13:29;;;;;;;6.00;1.50;;;;;;;6.92;84.34;101467.94;6038709;29;20246;-79
2020/12/16 14:16:32;;;;;;;2.67;1.60;;;;;;;7.12;84.05;101507.16;6033429;29;20273;-82
2020/12/16 14:19:37;;;;;;;1.47;1.20;;;;;;;7.16;84.04;101503.09;6031116;29;20236;-81
2020/12/16 14:22:40;;;;;;;1.70;1.43;;;;;;;7.00;84.61;101500.44;6026151;29;20571;-80
2020/12/16 14:25:43;;;;;;;2.30;1.40;;;;;;;6.98;84.96;101516.06;6039245;29;20282;-78
2020/12/16 14:28:47;;;;;;;2.33;1.27;;;;;;;6.88;85.15;101520.88;6041185;29;20266;-83
2020/12/16 14:31:50;;;;;;;1.30;1.30;;;;;;;6.90;85.31;101524.25;6032759;29;20267;-81
2020/12/16 14:34:54;;;;;;;1.77;1.30;;;;;;;6.95;85.28;101521.84;6030363;29;20543;-82
2020/12/16 14:37:58;;;;;;;1.50;1.40;;;;;;;6.73;85.22;101506.34;6024772;29;20207;-79
2020/12/16 14:41:01;;;;;;;1.80;1.10;;;;;;;6.89;85.25;101534.25;6029863;29;20210;-81